William P Hobby Airport
KHOU : now visible

Airfield :











YOU CAN JOIN US ON...

 
LOGIN :

Register | Disclaimer

   EN    FR    IT 

 









Legend :    VFR   Marginal VFR   IFR   Intensive IFR   Very Intensive IFR
Visi :
Ceiling :
>= 8 km
>= 3000ft
5 to 8 km
1000 to 3000 ft
1500m to 5 km
500 to 1000 ft
800 to 1500m
200 to 500 ft
< 800m
< 200 ft
Symbols :   Thunderstorms  Fog  Heavy snow  Heavy precipitations  Wind > 20 kt







- Airport Elevation : 46 ft
- IATA code : HOU


KHOU - William P Hobby

CURRENT METAR :
  • 201339Z 33008KT 10SM FEW008 OVC050 08/07 A2996 RMK AO2 RAE1258 P0000 T00830067

EXPIRED METARs :
  • 201311Z 33009KT 10SM BKN010 OVC048 08/06 A2995 RMK AO2 RAE1258 P0000 T00830061
  • 201253Z 33009KT 10SM -RA BKN009 OVC045 08/07 A2994 RMK AO2 SLP143 P0001 T00780067
  • 201219Z 35010KT 10SM -RA BKN008 BKN050 OVC070 08/07 A2991 RMK AO2 P0001 T00780067
  • 201153Z 34009KT 10SM -RA SCT008 BKN044 OVC060 08/07 A2991 RMK AO2 RAE33B51 SLP133 P0000 60001 70008 T00780067 10100 20078 53007
  • 201144Z 34010KT 10SM SCT008 OVC044 08/07 A2991 RMK AO2 RAE33 P0000 T00830067
  • 201053Z 33009KT 9SM -RA BKN008 BKN012 OVC027 08/07 A2991 RMK AO2 RAB03 SLP133 P0001 T00830067

TAF KHOU
Valid from the 20 at 13:00 until the 21 at 12:00 UTC


201325Z 2013/2112 33010KT P6SM BKN010 OVC045
FM201500 34009KT P6SM SCT015 BKN040
FM201700 34010KT P6SM FEW045 BKN250
FM201900 35009KT P6SM SCT250
FM210700 03006KT P6SM SCT050 BKN150
FM211100 06008KT P6SM SHRA SCT025 OVC035
KZHU FIR / North America



MET'MAP, your aeronautical weather chart ! - Copyright ORBIFLY December 2007 - Disclaimer

ORBIFLY MET'MAP TEAM :

Programming & Development : Alexandra Zaïnal
Concept & Development : Baudouin d'Aumeries
Co-Development & Prog : Marc-Olivier Méhu
Technical & hardware support : Manuel Goepfert

Contact : metmap@orbifly.com




SOURCES & CREDITS :

   NOAA       Earth
Advisory